Hamaritha — PF2437 — position and weather

sailwx.info

Track history (hours):
 
Tides and Currents Weather Stations Pressure Air Temp Water Temp Dewpoint Dewpoint Depression Visibility Wind Speed Wind Dir Waves Ship Positions

Hamaritha

Last reported at 2016-Apr-27 22:33 UTC. Time now 2016-May-02 19:26 UTC.
Position N 52°47' E 007°16'.

Length 86 m.

Type: Ship. MMSI: 244700691.

Date/timePositionNaut miles runAvg speedWind from/ knotsBaromVisibWave heightAir tempDewpointWater temp
2016-Apr-27 22:33N 52°47' E 007°16'0 0.0
2016-Apr-27 21:33N 52°47' E 007°16'0 0.0
2016-Apr-27 20:33N 52°47' E 007°16'0 0.0
2016-Apr-27 19:33N 52°47' E 007°16'0 0.0
2016-Apr-27 18:33N 52°47' E 007°16'0 0.0
2016-Apr-27 17:32N 52°47' E 007°16'0 0.0
2016-Apr-27 16:33N 52°47' E 007°16'0 0.0
2016-Apr-27 15:32N 52°47' E 007°16'0 0.0
2016-Apr-27 14:33N 52°47' E 007°16'0 0.0
2016-Apr-27 13:32N 52°47' E 007°16'0 0.0
2016-Apr-27 12:33N 52°47' E 007°16'0 0.0
2016-Apr-27 11:33N 52°47' E 007°16'0 0.0
2016-Apr-27 10:33N 52°47' E 007°16'0 0.0
2016-Apr-26 21:06N 52°47' E 007°16'0 0.0
2016-Apr-26 20:33N 52°47' E 007°16'0 0.0
2016-Apr-26 19:32N 52°47' E 007°16'0 0.0
2016-Apr-26 18:31N 52°47' E 007°16'0 0.0
2016-Apr-26 17:33N 52°47' E 007°16'0 0.0
2016-Apr-26 16:30N 52°47' E 007°16'0 0.0
2016-Apr-26 15:33N 52°47' E 007°16'0 0.0
2016-Apr-26 14:33N 52°47' E 007°16'0 0.1
2016-Apr-26 13:33N 52°47' E 007°16'0 0.0
2016-Apr-26 12:33N 52°47' E 007°16'0 0.0
2016-Apr-26 11:33N 52°47' E 007°16'0 0.0
2016-Apr-26 10:33N 52°47' E 007°16'0 0.0
2016-Apr-26 09:33N 52°47' E 007°16'0 0.0
2016-Apr-26 08:33N 52°47' E 007°16'0 0.0
2016-Apr-26 07:33N 52°47' E 007°16'0 0.0
2016-Apr-26 06:34N 52°47' E 007°16'0 0.1
2016-Apr-26 05:34N 52°47' E 007°16'0 0.0
2016-Apr-26 04:34N 52°47' E 007°16'0 0.0
2016-Apr-26 03:34N 52°47' E 007°16'0 0.0
2016-Apr-26 02:34N 52°47' E 007°16'0 0.0
2016-Apr-26 01:33N 52°47' E 007°16'0 0.0
2016-Apr-26 00:32N 52°47' E 007°16'0 0.0
2016-Apr-25 23:32N 52°47' E 007°16'0 0.0
2016-Apr-25 22:34N 52°47' E 007°16'0 0.0
2016-Apr-25 21:33N 52°47' E 007°16'0 0.0
2016-Apr-25 20:31N 52°47' E 007°16'0 0.0
2016-Apr-25 19:33N 52°47' E 007°16'2 2.3
2016-Apr-25 18:33N 52°49' E 007°14'3 3.0
2016-Apr-25 17:33N 52°51' E 007°18'3 3.4
2016-Apr-25 16:33N 52°54' E 007°19'16 3.7
2016-Apr-25 12:21N 53°10' E 007°22'6 7.5
2016-Apr-25 11:33N 53°16' E 007°24'8 8.1
2016-Apr-25 10:32N 53°20' E 007°12'9 9.3
2016-Apr-25 09:33N 53°19' E 006°57'3 3.4
2016-Apr-25 08:33N 53°18' E 006°51'5 4.8
2016-Apr-25 07:32N 53°16' E 006°44'6 2.6
2016-Apr-25 05:16N 53°14' E 006°35'22 0.5
2016-Apr-23 08:31N 53°11' E 005°58'5 5.3
2016-Apr-23 07:33N 53°07' E 005°53'16 5.1
2016-Apr-23 04:25N 52°53' E 005°41'2 0.4
2016-Apr-22 23:22N 52°51' E 005°40'0 0.0
2016-Apr-22 22:33N 52°51' E 005°40'0 0.0
2016-Apr-22 21:33N 52°51' E 005°40'0 0.0
2016-Apr-22 20:33N 52°51' E 005°40'0 0.0
2016-Apr-22 19:33N 52°51' E 005°40'0 0.0
2016-Apr-22 18:33N 52°51' E 005°40'5 4.7
2016-Apr-22 17:33N 52°47' E 005°36'7 6.9
2016-Apr-22 16:33N 52°40' E 005°33'7 6.7
2016-Apr-22 15:33N 52°36' E 005°42'7 7.2
2016-Apr-22 14:33N 52°34' E 005°53'6 5.5
2016-Apr-22 13:33N 52°31' E 006°01'20 6.6
2016-Apr-22 10:32N 52°12' E 006°10'5 4.5
2016-Apr-22 09:20N 52°07' E 006°12'5 6.2
2016-Apr-22 08:31N 52°03' E 006°07'5 4.6
2016-Apr-22 07:31N 51°60' E 006°01'14 6.8
2016-Apr-22 05:29N 51°49' E 006°16'12 8.5
2016-Apr-22 04:04N 51°40' E 006°29'5 9.5
2016-Apr-22 03:33N 51°39' E 006°36'1 0.4
2016-Apr-22 01:33N 51°38' E 006°37'0 0.0
2016-Apr-22 00:27N 51°38' E 006°37'0 0.0
2016-Apr-21 23:09N 51°38' E 006°37'0 0.0
2016-Apr-21 21:12N 51°38' E 006°37'1 1.3
2016-Apr-21 20:33N 51°38' E 006°35'8 7.6
2016-Apr-21 19:33N 51°31' E 006°42'8 7.8
2016-Apr-21 18:30N 51°23' E 006°44'6 6.7
2016-Apr-21 17:33N 51°17' E 006°43'6 6.4
2016-Apr-21 16:33N 51°11' E 006°46'16 7.3
2016-Apr-21 14:24N 50°58' E 006°60'6 6.9
2016-Apr-21 13:33N 50°52' E 007°01'8 7.8
2016-Apr-21 12:33N 50°45' E 007°06'  
Track history (hours):
 
Tides and Currents Weather Stations Pressure Air Temp Water Temp Dewpoint Dewpoint Depression Visibility Wind Speed Wind Dir Waves Ship Positions

Hamaritha

Last reported at 2016-Apr-27 22:33 UTC. Time now 2016-May-02 19:26 UTC.
Position N 52°47' E 007°16'.

Length 86 m.

Type: Ship. MMSI: 244700691.

Date/timePositionNaut miles runAvg speedWind from/ knotsBaromVisibWave heightAir tempDewpointWater temp
2016-Apr-27 22:33N 52°47' E 007°16'0 0.0
2016-Apr-27 21:33N 52°47' E 007°16'0 0.0
2016-Apr-27 20:33N 52°47' E 007°16'0 0.0
2016-Apr-27 19:33N 52°47' E 007°16'0 0.0
2016-Apr-27 18:33N 52°47' E 007°16'0 0.0
2016-Apr-27 17:32N 52°47' E 007°16'0 0.0
2016-Apr-27 16:33N 52°47' E 007°16'0 0.0
2016-Apr-27 15:32N 52°47' E 007°16'0 0.0
2016-Apr-27 14:33N 52°47' E 007°16'0 0.0
2016-Apr-27 13:32N 52°47' E 007°16'0 0.0
2016-Apr-27 12:33N 52°47' E 007°16'0 0.0
2016-Apr-27 11:33N 52°47' E 007°16'0 0.0
2016-Apr-27 10:33N 52°47' E 007°16'0 0.0
2016-Apr-26 21:06N 52°47' E 007°16'0 0.0
2016-Apr-26 20:33N 52°47' E 007°16'0 0.0
2016-Apr-26 19:32N 52°47' E 007°16'0 0.0
2016-Apr-26 18:31N 52°47' E 007°16'0 0.0
2016-Apr-26 17:33N 52°47' E 007°16'0 0.0
2016-Apr-26 16:30N 52°47' E 007°16'0 0.0
2016-Apr-26 15:33N 52°47' E 007°16'0 0.0
2016-Apr-26 14:33N 52°47' E 007°16'0 0.1
2016-Apr-26 13:33N 52°47' E 007°16'0 0.0
2016-Apr-26 12:33N 52°47' E 007°16'0 0.0
2016-Apr-26 11:33N 52°47' E 007°16'0 0.0
2016-Apr-26 10:33N 52°47' E 007°16'0 0.0
2016-Apr-26 09:33N 52°47' E 007°16'0 0.0
2016-Apr-26 08:33N 52°47' E 007°16'0 0.0
2016-Apr-26 07:33N 52°47' E 007°16'0 0.0
2016-Apr-26 06:34N 52°47' E 007°16'0 0.1
2016-Apr-26 05:34N 52°47' E 007°16'0 0.0
2016-Apr-26 04:34N 52°47' E 007°16'0 0.0
2016-Apr-26 03:34N 52°47' E 007°16'0 0.0
2016-Apr-26 02:34N 52°47' E 007°16'0 0.0
2016-Apr-26 01:33N 52°47' E 007°16'0 0.0
2016-Apr-26 00:32N 52°47' E 007°16'0 0.0
2016-Apr-25 23:32N 52°47' E 007°16'0 0.0
2016-Apr-25 22:34N 52°47' E 007°16'0 0.0
2016-Apr-25 21:33N 52°47' E 007°16'0 0.0
2016-Apr-25 20:31N 52°47' E 007°16'0 0.0
2016-Apr-25 19:33N 52°47' E 007°16'2 2.3
2016-Apr-25 18:33N 52°49' E 007°14'3 3.0
2016-Apr-25 17:33N 52°51' E 007°18'3 3.4
2016-Apr-25 16:33N 52°54' E 007°19'16 3.7
2016-Apr-25 12:21N 53°10' E 007°22'6 7.5
2016-Apr-25 11:33N 53°16' E 007°24'8 8.1
2016-Apr-25 10:32N 53°20' E 007°12'9 9.3
2016-Apr-25 09:33N 53°19' E 006°57'3 3.4
2016-Apr-25 08:33N 53°18' E 006°51'5 4.8
2016-Apr-25 07:32N 53°16' E 006°44'6 2.6
2016-Apr-25 05:16N 53°14' E 006°35'22 0.5
2016-Apr-23 08:31N 53°11' E 005°58'5 5.3
2016-Apr-23 07:33N 53°07' E 005°53'16 5.1
2016-Apr-23 04:25N 52°53' E 005°41'2 0.4
2016-Apr-22 23:22N 52°51' E 005°40'0 0.0
2016-Apr-22 22:33N 52°51' E 005°40'0 0.0
2016-Apr-22 21:33N 52°51' E 005°40'0 0.0
2016-Apr-22 20:33N 52°51' E 005°40'0 0.0
2016-Apr-22 19:33N 52°51' E 005°40'0 0.0
2016-Apr-22 18:33N 52°51' E 005°40'5 4.7
2016-Apr-22 17:33N 52°47' E 005°36'7 6.9
2016-Apr-22 16:33N 52°40' E 005°33'7 6.7
2016-Apr-22 15:33N 52°36' E 005°42'7 7.2
2016-Apr-22 14:33N 52°34' E 005°53'6 5.5
2016-Apr-22 13:33N 52°31' E 006°01'20 6.6
2016-Apr-22 10:32N 52°12' E 006°10'5 4.5
2016-Apr-22 09:20N 52°07' E 006°12'5 6.2
2016-Apr-22 08:31N 52°03' E 006°07'5 4.6
2016-Apr-22 07:31N 51°60' E 006°01'14 6.8
2016-Apr-22 05:29N 51°49' E 006°16'12 8.5
2016-Apr-22 04:04N 51°40' E 006°29'5 9.5
2016-Apr-22 03:33N 51°39' E 006°36'1 0.4
2016-Apr-22 01:33N 51°38' E 006°37'0 0.0
2016-Apr-22 00:27N 51°38' E 006°37'0 0.0
2016-Apr-21 23:09N 51°38' E 006°37'0 0.0
2016-Apr-21 21:12N 51°38' E 006°37'1 1.3
2016-Apr-21 20:33N 51°38' E 006°35'8 7.6
2016-Apr-21 19:33N 51°31' E 006°42'8 7.8
2016-Apr-21 18:30N 51°23' E 006°44'6 6.7
2016-Apr-21 17:33N 51°17' E 006°43'6 6.4
2016-Apr-21 16:33N 51°11' E 006°46'16 7.3
2016-Apr-21 14:24N 50°58' E 006°60'6 6.9
2016-Apr-21 13:33N 50°52' E 007°01'8 7.8
2016-Apr-21 12:33N 50°45' E 007°06'  

Dump ship's entire track history